createdAt,value
2022-12-16T00:00:02.208Z,33.92
2022-12-16T00:02:38.846Z,44.72
2022-12-16T00:05:12.503Z,34.90
2022-12-16T00:07:45.785Z,44.33
2022-12-16T00:10:20.680Z,32.25
2022-12-16T00:12:53.975Z,36.13
2022-12-16T00:15:28.847Z,39.88
2022-12-16T00:18:02.131Z,41.15
2022-12-16T00:20:35.424Z,36.90
2022-12-16T00:23:08.864Z,34.50
2022-12-16T00:25:44.936Z,28.17
2022-12-16T00:28:22.644Z,38.85
2022-12-16T00:30:57.469Z,37.85
2022-12-16T00:33:31.470Z,38.55
2022-12-16T00:36:05.613Z,31.27
2022-12-16T00:38:39.463Z,30.95
2022-12-16T00:41:14.171Z,26.27
2022-12-16T00:43:47.497Z,34.95
2022-12-16T00:46:20.846Z,49.83
2022-12-16T00:48:54.726Z,43.17
2022-12-16T00:51:28.764Z,34.28
2022-12-16T00:54:02.244Z,24.80
2022-12-16T00:56:36.999Z,20.23
2022-12-16T00:59:10.661Z,20.45
2022-12-16T01:01:44.144Z,19.98
2022-12-16T01:04:17.843Z,15.20
2022-12-16T01:06:51.099Z,12.80
2022-12-16T01:09:25.909Z,9.70
2022-12-16T01:12:00.627Z,7.07
2022-12-16T01:14:34.145Z,8.32
2022-12-16T01:17:07.642Z,8.73
2022-12-16T01:19:41.435Z,9.05
2022-12-16T01:22:15.197Z,5.90
2022-12-16T01:24:48.608Z,7.55
2022-12-16T01:27:23.362Z,9.45
2022-12-16T01:29:57.078Z,10.57
2022-12-16T01:32:30.545Z,5.15
2022-12-16T01:35:07.878Z,6.28
2022-12-16T01:37:51.786Z,7.38
2022-12-16T01:40:26.165Z,6.70
2022-12-16T01:43:00.836Z,4.50
2022-12-16T01:45:36.479Z,7.72
2022-12-16T01:48:21.130Z,7.90
2022-12-16T01:50:57.163Z,9.77
2022-12-16T01:53:31.747Z,8.73
2022-12-16T01:56:05.892Z,7.35
2022-12-16T01:58:42.402Z,8.43
2022-12-16T02:01:17.785Z,5.43
2022-12-16T02:03:53.917Z,6.60
2022-12-16T02:06:27.532Z,4.75
2022-12-16T02:09:05.467Z,8.63
2022-12-16T02:12:00.187Z,15.35
2022-12-16T02:14:59.760Z,14.68
2022-12-16T02:17:42.043Z,13.00
2022-12-16T02:20:45.021Z,13.57
2022-12-16T02:23:50.503Z,14.15
2022-12-16T02:26:48.023Z,8.43
2022-12-16T02:32:41.038Z,10.55
2022-12-16T02:35:21.938Z,8.48
2022-12-16T02:38:09.041Z,12.27
2022-12-16T02:40:46.935Z,13.35
2022-12-16T02:43:40.543Z,15.18
2022-12-16T02:46:13.870Z,11.27
2022-12-16T02:48:48.637Z,12.85
2022-12-16T02:51:23.838Z,12.93
2022-12-16T02:53:57.186Z,9.70
2022-12-16T02:56:42.681Z,10.18
2022-12-16T02:59:21.518Z,8.27
2022-12-16T03:02:02.978Z,11.35
2022-12-16T03:04:42.892Z,13.00
2022-12-16T03:07:19.000Z,8.77
2022-12-16T03:09:54.414Z,15.30
2022-12-16T03:12:28.351Z,10.07
2022-12-16T03:15:02.324Z,12.10
2022-12-16T03:17:38.315Z,9.07
2022-12-16T03:20:18.670Z,11.70
2022-12-16T03:22:55.604Z,9.65
2022-12-16T03:25:30.562Z,7.90
2022-12-16T03:28:13.306Z,10.20
2022-12-16T03:30:50.912Z,10.82
2022-12-16T03:33:29.712Z,10.23
2022-12-16T03:36:11.327Z,12.88
2022-12-16T03:38:46.724Z,12.65
2022-12-16T03:41:21.895Z,10.80
2022-12-16T03:43:55.756Z,10.77
2022-12-16T03:46:29.475Z,12.00
2022-12-16T03:49:02.856Z,11.98
2022-12-16T03:51:37.772Z,10.15
2022-12-16T03:54:11.315Z,12.63
2022-12-16T03:56:44.749Z,10.27
2022-12-16T03:59:18.186Z,15.65
2022-12-16T04:01:51.624Z,14.65
2022-12-16T04:04:25.498Z,13.25
2022-12-16T04:07:17.646Z,18.83
2022-12-16T04:09:51.617Z,15.82
2022-12-16T04:12:42.208Z,14.00
2022-12-16T04:15:33.482Z,18.42
2022-12-16T04:18:24.971Z,22.15
2022-12-16T04:21:16.058Z,20.58
2022-12-16T04:24:11.017Z,19.88
2022-12-16T04:26:58.354Z,25.63
2022-12-16T04:29:31.904Z,26.42
2022-12-16T04:32:05.740Z,27.15
2022-12-16T04:34:38.032Z,24.75
2022-12-16T04:40:21.514Z,24.42
2022-12-16T04:43:12.159Z,25.13
2022-12-16T04:46:05.521Z,20.35
2022-12-16T04:48:56.042Z,21.90
2022-12-16T04:51:46.865Z,24.92
2022-12-16T04:54:37.442Z,35.50
2022-12-16T04:57:28.845Z,45.00
2022-12-16T05:00:19.677Z,39.03
2022-12-16T05:03:10.153Z,30.65
2022-12-16T05:06:01.428Z,19.30
2022-12-16T05:08:52.134Z,17.00
2022-12-16T05:11:43.037Z,18.80
2022-12-16T05:14:35.174Z,29.60
2022-12-16T05:17:26.166Z,33.90
2022-12-16T05:20:16.867Z,36.88
2022-12-16T05:23:07.802Z,29.63
2022-12-16T05:25:58.641Z,29.73
2022-12-16T05:28:49.460Z,30.40
2022-12-16T05:31:41.823Z,31.83
2022-12-16T05:34:33.032Z,22.13
2022-12-16T05:37:23.619Z,26.00
2022-12-16T05:40:14.553Z,24.75
2022-12-16T05:43:06.440Z,25.42
2022-12-16T05:45:54.791Z,22.35
2022-12-16T05:48:47.947Z,41.00
2022-12-16T05:51:38.937Z,47.75
2022-12-16T05:54:29.491Z,46.42
2022-12-16T05:57:20.343Z,32.67
2022-12-16T06:00:10.935Z,40.63
2022-12-16T06:03:04.403Z,40.65
2022-12-16T06:05:56.951Z,34.20
2022-12-16T06:08:47.963Z,42.33
2022-12-16T06:11:38.629Z,36.65
2022-12-16T06:14:29.361Z,29.98
2022-12-16T06:17:20.275Z,36.65
2022-12-16T06:20:11.044Z,28.00
2022-12-16T06:23:09.294Z,32.78
2022-12-16T06:26:00.766Z,38.20
2022-12-16T06:28:51.483Z,39.65
2022-12-16T06:31:42.371Z,42.55
2022-12-16T06:34:33.118Z,34.72
2022-12-16T06:37:23.904Z,33.42
2022-12-16T06:40:16.238Z,32.88
2022-12-16T06:43:06.941Z,30.48
2022-12-16T06:45:57.695Z,33.00
2022-12-16T06:48:50.701Z,32.08
2022-12-16T06:51:41.333Z,27.52
2022-12-16T06:54:32.149Z,24.55
2022-12-16T06:57:24.611Z,23.33
2022-12-16T07:00:15.430Z,29.35
2022-12-16T07:03:06.041Z,31.42
2022-12-16T07:05:56.570Z,30.02
2022-12-16T07:08:47.474Z,28.73
2022-12-16T07:11:38.152Z,30.70
2022-12-16T07:14:30.362Z,25.00
2022-12-16T07:17:21.159Z,26.17
2022-12-16T07:20:11.852Z,27.23
2022-12-16T07:23:11.851Z,44.90
2022-12-16T07:26:08.156Z,41.53
2022-12-16T07:28:58.838Z,43.10
2022-12-16T07:31:51.354Z,63.55
2022-12-16T07:34:45.969Z,57.40
2022-12-16T07:37:40.792Z,45.55
2022-12-16T07:40:31.800Z,41.17
2022-12-16T07:43:22.343Z,43.72
2022-12-16T07:46:13.917Z,47.72
2022-12-16T07:49:05.977Z,47.60
2022-12-16T07:51:56.784Z,43.90
2022-12-16T07:54:48.186Z,44.40
2022-12-16T07:57:39.213Z,42.70
2022-12-16T08:00:45.309Z,54.65
2022-12-16T08:03:37.117Z,48.63
2022-12-16T08:06:29.712Z,40.00
2022-12-16T08:09:20.907Z,40.45
2022-12-16T08:12:11.587Z,52.42
2022-12-16T08:15:02.328Z,40.83
2022-12-16T08:17:58.413Z,55.10
2022-12-16T08:20:57.561Z,47.28
2022-12-16T08:23:49.586Z,50.35
2022-12-16T08:26:40.436Z,71.70
2022-12-16T08:29:46.408Z,58.33
2022-12-16T08:32:36.944Z,64.43
2022-12-16T08:35:27.671Z,74.32
2022-12-16T08:38:18.511Z,89.50
2022-12-16T08:41:13.995Z,83.95
2022-12-16T08:44:04.512Z,87.75
2022-12-16T08:46:55.120Z,82.15
2022-12-16T08:49:45.690Z,113.93
2022-12-16T08:52:36.410Z,84.68
2022-12-16T08:55:29.744Z,68.32
2022-12-16T08:58:21.887Z,94.85
2022-12-16T09:01:12.553Z,80.63
2022-12-16T09:04:03.279Z,169.25
2022-12-16T09:06:54.239Z,121.80
2022-12-16T09:09:46.611Z,109.00
2022-12-16T09:12:37.086Z,76.88
2022-12-16T09:15:29.613Z,86.22
2022-12-16T09:18:20.373Z,75.15
2022-12-16T09:21:12.100Z,78.85
2022-12-16T09:24:02.755Z,77.10
2022-12-16T09:26:53.618Z,56.55
2022-12-16T09:29:45.204Z,62.28
2022-12-16T09:32:37.478Z,125.50
2022-12-16T09:35:33.797Z,101.32
2022-12-16T09:38:24.788Z,102.88
2022-12-16T09:41:16.054Z,61.65
2022-12-16T09:44:24.168Z,72.80
2022-12-16T09:47:27.842Z,87.25
2022-12-16T09:50:20.926Z,76.38
2022-12-16T09:53:16.574Z,77.13
2022-12-16T09:56:07.557Z,69.00
2022-12-16T09:59:02.448Z,69.90
2022-12-16T10:01:55.795Z,57.35
2022-12-16T10:04:46.804Z,85.95
2022-12-16T10:07:40.170Z,57.03
2022-12-16T10:10:42.287Z,72.97
2022-12-16T10:13:40.766Z,60.60
2022-12-16T10:16:37.298Z,71.65
2022-12-16T10:19:46.598Z,45.67
2022-12-16T10:22:45.715Z,56.85
2022-12-16T10:25:39.737Z,47.25
2022-12-16T10:28:36.345Z,55.33
2022-12-16T10:31:32.183Z,44.95
2022-12-16T10:34:29.740Z,36.92
2022-12-16T10:37:21.430Z,56.55
2022-12-16T10:40:17.238Z,44.03
2022-12-16T10:43:11.761Z,39.45
2022-12-16T10:46:07.426Z,76.70
2022-12-16T10:48:59.184Z,104.88
2022-12-16T10:51:50.048Z,76.28
2022-12-16T10:54:48.921Z,69.28
2022-12-16T10:57:52.491Z,91.55
2022-12-16T11:00:59.351Z,70.10
2022-12-16T11:03:51.239Z,62.22
2022-12-16T11:06:45.074Z,52.55
2022-12-16T11:09:47.626Z,58.13
2022-12-16T11:12:45.776Z,52.05
2022-12-16T11:15:43.215Z,50.80
2022-12-16T11:18:36.444Z,54.17
2022-12-16T11:21:33.213Z,55.47
2022-12-16T11:24:29.577Z,46.83
2022-12-16T11:27:21.836Z,38.90
2022-12-16T11:30:16.005Z,42.10
2022-12-16T11:33:10.623Z,46.65
2022-12-16T11:36:06.425Z,45.72
2022-12-16T11:39:01.420Z,35.13
2022-12-16T11:41:55.913Z,33.08
2022-12-16T11:44:50.886Z,35.53
2022-12-16T11:47:54.384Z,35.08
2022-12-16T11:50:46.718Z,28.92
2022-12-16T11:53:48.821Z,54.70
2022-12-16T11:56:42.619Z,45.80
2022-12-16T11:59:43.073Z,51.72
2022-12-16T12:02:38.412Z,43.67
2022-12-16T12:05:47.353Z,39.22
2022-12-16T12:08:44.186Z,37.20
2022-12-16T12:11:40.635Z,40.38
2022-12-16T12:14:48.089Z,39.35
2022-12-16T12:17:55.673Z,36.25
2022-12-16T12:21:00.424Z,36.55
2022-12-16T12:24:01.064Z,34.45
2022-12-16T12:26:54.441Z,31.13
2022-12-16T12:29:54.286Z,41.90
2022-12-16T12:32:54.164Z,54.85
2022-12-16T12:36:04.870Z,50.38
2022-12-16T12:39:02.673Z,54.95
2022-12-16T12:42:08.824Z,39.97
2022-12-16T12:45:09.767Z,37.47
2022-12-16T12:48:14.766Z,29.52
2022-12-16T12:51:15.605Z,26.10
2022-12-16T12:54:13.376Z,40.72
2022-12-16T12:57:08.802Z,37.90
2022-12-16T13:00:09.088Z,29.60
2022-12-16T13:03:07.051Z,28.70
2022-12-16T13:05:59.220Z,31.45
2022-12-16T13:09:00.721Z,28.37
2022-12-16T13:11:51.435Z,23.25
2022-12-16T13:15:14.755Z,39.70
2022-12-16T13:18:31.443Z,28.98
2022-12-16T13:21:30.836Z,29.80
2022-12-16T13:24:43.569Z,29.77
2022-12-16T13:27:35.618Z,23.38
2022-12-16T13:30:41.924Z,24.08
2022-12-16T13:33:47.806Z,22.45
2022-12-16T13:36:38.821Z,31.02
2022-12-16T13:39:46.357Z,21.42
2022-12-16T13:43:08.096Z,23.35
2022-12-16T13:46:01.084Z,33.20
2022-12-16T13:49:01.524Z,24.90
2022-12-16T13:52:33.857Z,21.55
2022-12-16T13:55:33.777Z,22.23
2022-12-16T13:58:33.190Z,25.67
2022-12-16T14:01:30.825Z,379.25
2022-12-16T14:04:22.349Z,112.07
2022-12-16T14:07:14.072Z,99.47
2022-12-16T14:10:07.987Z,111.05
2022-12-16T14:13:10.929Z,72.78
2022-12-16T14:16:14.647Z,33.00
2022-12-16T14:19:20.599Z,27.75
2022-12-16T14:22:18.923Z,43.22
2022-12-16T14:25:09.771Z,46.58
2022-12-16T14:28:02.145Z,25.75
2022-12-16T14:30:55.562Z,28.27
2022-12-16T14:33:48.544Z,25.17
2022-12-16T14:39:32.845Z,20.17
2022-12-16T14:42:24.007Z,31.38
2022-12-16T14:45:14.880Z,22.35
2022-12-16T14:48:07.020Z,32.67
2022-12-16T14:51:00.325Z,29.98
2022-12-16T14:53:51.183Z,30.02
2022-12-16T14:56:42.366Z,103.03
2022-12-16T14:59:33.733Z,173.88
2022-12-16T15:02:37.722Z,338.20
2022-12-16T15:05:30.791Z,218.73
2022-12-16T15:11:11.980Z,101.38
2022-12-16T15:14:04.036Z,57.15
2022-12-16T15:16:57.043Z,52.00
2022-12-16T15:20:01.573Z,61.45
2022-12-16T15:22:55.832Z,36.20
2022-12-16T15:25:46.834Z,33.92
2022-12-16T15:28:40.346Z,30.02
2022-12-16T15:31:41.963Z,29.00
2022-12-16T15:34:47.142Z,33.65
2022-12-16T15:37:49.869Z,32.38
2022-12-16T15:40:45.663Z,34.45
2022-12-16T15:43:42.023Z,31.50
2022-12-16T15:46:37.930Z,40.35
2022-12-16T15:49:37.757Z,37.63
2022-12-16T15:52:47.017Z,38.63
2022-12-16T15:55:49.062Z,32.17
2022-12-16T15:58:43.946Z,62.92
2022-12-16T16:01:37.313Z,47.58
2022-12-16T16:04:37.329Z,45.42
2022-12-16T16:07:33.967Z,41.08
2022-12-16T16:10:34.310Z,52.47
2022-12-16T16:13:27.626Z,58.72
2022-12-16T16:16:18.674Z,65.70
2022-12-16T16:19:09.342Z,58.92
2022-12-16T16:22:00.240Z,48.05
2022-12-16T16:24:51.059Z,58.03
2022-12-16T16:27:56.220Z,50.53
2022-12-16T16:30:48.649Z,39.17
2022-12-16T16:33:39.424Z,47.38
2022-12-16T16:36:35.904Z,51.15
2022-12-16T16:39:27.158Z,45.10
2022-12-16T16:42:17.861Z,49.35
2022-12-16T16:45:08.479Z,55.17
2022-12-16T16:48:00.601Z,58.17
2022-12-16T16:50:51.609Z,64.95
2022-12-16T16:53:42.446Z,83.15
2022-12-16T16:56:47.821Z,99.38
2022-12-16T16:59:40.983Z,72.38
2022-12-16T17:02:40.882Z,75.78
2022-12-16T17:05:33.734Z,61.72
2022-12-16T17:08:25.025Z,63.65
2022-12-16T17:11:15.816Z,57.90
2022-12-16T17:14:06.456Z,61.80
2022-12-16T17:16:58.553Z,53.60
2022-12-16T17:19:49.344Z,59.42
2022-12-16T17:22:43.764Z,62.95
2022-12-16T17:25:49.504Z,126.80
2022-12-16T17:28:40.156Z,258.50
2022-12-16T17:31:31.211Z,126.50
2022-12-16T17:34:24.512Z,85.32
2022-12-16T17:37:15.504Z,96.18
2022-12-16T17:40:07.727Z,78.40
2022-12-16T17:43:00.710Z,82.63
2022-12-16T17:45:51.513Z,70.63
2022-12-16T17:48:45.784Z,73.93
2022-12-16T17:51:36.588Z,51.42
2022-12-16T17:54:29.558Z,56.33
2022-12-16T17:57:22.227Z,59.22
2022-12-16T18:00:13.261Z,60.45
2022-12-16T18:03:04.107Z,66.13
2022-12-16T18:05:54.970Z,53.38
2022-12-16T18:08:45.786Z,60.53
2022-12-16T18:11:38.837Z,47.20
2022-12-16T18:14:31.055Z,50.63
2022-12-16T18:17:21.866Z,48.97
2022-12-16T18:20:12.835Z,40.75
2022-12-16T18:23:03.985Z,46.45
2022-12-16T18:25:54.608Z,51.70
2022-12-16T18:28:45.264Z,52.35
2022-12-16T18:31:37.746Z,60.65
2022-12-16T18:34:28.654Z,45.65
2022-12-16T18:37:19.209Z,54.20
2022-12-16T18:40:09.768Z,53.55
2022-12-16T18:42:56.937Z,52.55
2022-12-16T18:45:47.855Z,37.17
2022-12-16T18:48:39.902Z,50.67
2022-12-16T18:51:30.596Z,52.83
2022-12-16T18:54:21.274Z,53.28
2022-12-16T18:57:12.060Z,43.42
2022-12-16T19:00:02.927Z,43.42
2022-12-16T19:02:54.021Z,44.35
2022-12-16T19:05:46.156Z,51.72
2022-12-16T19:08:37.003Z,52.57
2022-12-16T19:11:27.761Z,57.20
2022-12-16T19:14:18.441Z,48.20
2022-12-16T19:17:09.120Z,43.85
2022-12-16T19:20:00.022Z,46.88
2022-12-16T19:22:52.008Z,43.65
2022-12-16T19:25:42.652Z,48.47
2022-12-16T19:28:34.434Z,51.33
2022-12-16T19:31:31.048Z,46.95
2022-12-16T19:34:23.151Z,52.58
2022-12-16T19:37:14.004Z,44.20
2022-12-16T19:40:05.953Z,44.35
2022-12-16T19:42:56.758Z,34.23
2022-12-16T19:45:47.543Z,43.58
2022-12-16T19:48:38.389Z,38.33
2022-12-16T19:51:29.405Z,42.85
2022-12-16T19:54:20.258Z,37.00
2022-12-16T19:57:12.418Z,39.10
2022-12-16T20:00:02.904Z,49.85
2022-12-16T20:03:02.761Z,50.38
2022-12-16T20:06:08.247Z,48.67
2022-12-16T20:09:00.339Z,46.47
2022-12-16T20:11:54.290Z,42.88
2022-12-16T20:14:48.415Z,45.40
2022-12-16T20:17:39.468Z,40.28
2022-12-16T20:20:30.226Z,48.80
2022-12-16T20:23:20.847Z,45.85
2022-12-16T20:26:15.117Z,56.67
2022-12-16T20:29:06.750Z,43.10
2022-12-16T20:31:59.082Z,42.67
2022-12-16T20:34:50.092Z,50.83
2022-12-16T20:37:40.835Z,45.00
2022-12-16T20:40:31.371Z,40.80
2022-12-16T20:43:22.360Z,49.78
2022-12-16T20:46:13.834Z,68.43
2022-12-16T20:49:06.950Z,53.95
2022-12-16T20:51:57.529Z,49.90
2022-12-16T20:54:48.172Z,37.35
2022-12-16T20:57:38.676Z,43.67
2022-12-16T21:00:31.042Z,39.60
2022-12-16T21:03:26.282Z,52.65
2022-12-16T21:06:18.562Z,44.45
2022-12-16T21:09:09.201Z,45.70
2022-12-16T21:12:00.146Z,47.90
2022-12-16T21:14:50.917Z,42.75
2022-12-16T21:17:42.644Z,46.80
2022-12-16T21:20:33.963Z,45.60
2022-12-16T21:23:27.716Z,49.28
2022-12-16T21:26:18.745Z,48.03
2022-12-16T21:29:09.599Z,42.05
2022-12-16T21:32:00.014Z,45.10
2022-12-16T21:34:51.773Z,59.22
2022-12-16T21:37:42.471Z,87.82
2022-12-16T21:40:34.924Z,74.15
2022-12-16T21:43:25.384Z,62.53
2022-12-16T21:46:15.904Z,38.22
2022-12-16T21:49:06.514Z,54.28
2022-12-16T21:51:57.286Z,65.50
2022-12-16T21:54:48.201Z,47.60
2022-12-16T21:57:40.396Z,52.95
2022-12-16T22:00:32.315Z,45.90
2022-12-16T22:03:23.041Z,55.37
2022-12-16T22:06:17.076Z,47.60
2022-12-16T22:09:07.856Z,56.20
2022-12-16T22:11:58.506Z,53.53
2022-12-16T22:14:49.927Z,47.70
2022-12-16T22:17:41.395Z,54.60
2022-12-16T22:20:32.040Z,52.08
2022-12-16T22:23:28.054Z,44.92
2022-12-16T22:26:20.339Z,52.08
2022-12-16T22:29:11.457Z,46.27
2022-12-16T22:32:03.746Z,51.60
2022-12-16T22:34:54.373Z,54.90
2022-12-16T22:37:46.660Z,47.27
2022-12-16T22:40:37.846Z,51.58
2022-12-16T22:43:28.514Z,59.70
2022-12-16T22:46:20.660Z,54.85
2022-12-16T22:49:15.007Z,49.80
2022-12-16T22:52:10.890Z,49.20
2022-12-16T22:55:02.078Z,47.55
2022-12-16T22:57:53.521Z,54.88
2022-12-16T23:00:44.713Z,64.35
2022-12-16T23:03:36.278Z,59.10
2022-12-16T23:06:29.221Z,50.15
2022-12-16T23:09:19.880Z,47.42
2022-12-16T23:12:07.526Z,53.95
2022-12-16T23:14:58.771Z,60.30
2022-12-16T23:17:49.666Z,58.22
2022-12-16T23:20:40.278Z,56.05
2022-12-16T23:23:32.847Z,62.47
2022-12-16T23:26:23.470Z,51.70
2022-12-16T23:29:14.548Z,55.13
2022-12-16T23:32:06.329Z,54.90
2022-12-16T23:35:00.113Z,47.53
2022-12-16T23:37:50.792Z,53.45
2022-12-16T23:40:43.029Z,44.17
2022-12-16T23:43:33.918Z,41.55
2022-12-16T23:46:24.977Z,46.33
2022-12-16T23:49:12.129Z,58.05
2022-12-16T23:52:03.308Z,44.65
2022-12-16T23:54:53.799Z,51.05
2022-12-16T23:57:48.397Z,56.28
